Rochester, Pennsylvania
Current Conditions -  °F | °C
As of 6:51 AM on Monday 24 Nov 2014 (Local Time) from KPIT Reporting Station
Scattered Clouds Scattered Clouds  
Wind Chill: 58°   Ceiling: Unl
Heat Index: 58°   Visibility: 10mi
Dew Point: 53°   Wind: 10mph
Humidity: 84%   Direction: 190°S
Pressure: 29.44"   Gusts: NA
Location:  40.7°N, 80.29°W
Report Text: KPIT 241151Z 19009KT 10SM SCT022 SCT037 14/12 A2944 RMK AO2 RAB23E41 SLP974 P0000 60000 70023 T01440117 10167 20122 51019
Loading
Personal Weather Stations






























Interactive Weather Map New forecast layout! Learn more

10-Day Weather Forecast

Advertisements
Track Severe Weather on mobile